createdAt,value
2019-05-18T00:02:51.859Z,40.75
2019-05-18T00:08:56.087Z,41.55
2019-05-18T00:15:00.399Z,40.23
2019-05-18T00:21:04.638Z,39.78
2019-05-18T00:27:08.853Z,41.50
2019-05-18T00:33:13.161Z,40.85
2019-05-18T00:39:17.437Z,40.92
2019-05-18T00:45:21.683Z,43.45
2019-05-18T00:51:25.917Z,40.30
2019-05-18T00:57:30.249Z,39.98
2019-05-18T01:03:34.458Z,39.58
2019-05-18T01:09:38.889Z,38.80
2019-05-18T01:15:43.097Z,37.95
2019-05-18T01:21:47.330Z,37.70
2019-05-18T01:27:51.556Z,41.92
2019-05-18T01:33:55.852Z,48.45
2019-05-18T01:40:00.141Z,45.28
2019-05-18T01:46:04.463Z,47.85
2019-05-18T01:52:08.686Z,47.00
2019-05-18T01:58:13.044Z,45.28
2019-05-18T02:04:17.252Z,46.00
2019-05-18T02:10:21.476Z,49.25
2019-05-18T02:16:25.750Z,46.75
2019-05-18T02:22:32.742Z,50.03
2019-05-18T02:28:36.948Z,46.98
2019-05-18T02:34:41.155Z,46.73
2019-05-18T02:40:46.457Z,47.65
2019-05-18T02:46:50.811Z,49.05
2019-05-18T02:52:55.039Z,45.67
2019-05-18T02:58:59.226Z,47.05
2019-05-18T03:05:03.812Z,48.95
2019-05-18T03:11:08.205Z,45.38
2019-05-18T03:17:12.433Z,50.85
2019-05-18T03:23:16.814Z,46.65
2019-05-18T03:29:21.006Z,49.15
2019-05-18T03:35:25.385Z,49.58
2019-05-18T03:41:29.598Z,49.10
2019-05-18T03:47:33.914Z,50.05
2019-05-18T03:53:38.333Z,51.33
2019-05-18T03:59:42.619Z,51.85
2019-05-18T04:05:46.857Z,52.08
2019-05-18T04:11:51.067Z,52.73
2019-05-18T04:17:55.286Z,51.88
2019-05-18T04:23:59.628Z,47.40
2019-05-18T04:30:03.922Z,49.10
2019-05-18T04:36:08.223Z,55.75
2019-05-18T04:42:12.431Z,49.13
2019-05-18T04:48:16.718Z,52.55
2019-05-18T04:54:20.956Z,46.53
2019-05-18T05:00:25.259Z,46.68
2019-05-18T05:06:29.568Z,48.83
2019-05-18T05:12:33.887Z,48.85
2019-05-18T05:18:38.133Z,50.73
2019-05-18T05:24:42.407Z,45.85
2019-05-18T05:30:46.672Z,47.05
2019-05-18T05:36:50.864Z,50.73
2019-05-18T05:42:55.382Z,48.73
2019-05-18T05:48:59.970Z,49.00
2019-05-18T05:55:04.394Z,44.50
2019-05-18T06:01:08.618Z,45.73
2019-05-18T06:07:12.912Z,42.70
2019-05-18T06:13:17.141Z,46.28
2019-05-18T06:19:21.518Z,46.00
2019-05-18T06:25:25.765Z,43.60
2019-05-18T06:31:30.004Z,42.62
2019-05-18T06:37:34.205Z,46.23
2019-05-18T06:43:38.400Z,46.50
2019-05-18T06:49:42.840Z,46.65
2019-05-18T06:55:47.057Z,46.53
2019-05-18T07:01:51.239Z,44.18
2019-05-18T07:07:58.673Z,46.35
2019-05-18T07:14:02.894Z,47.30
2019-05-18T07:20:07.625Z,46.37
2019-05-18T07:26:11.846Z,49.38
2019-05-18T07:32:16.128Z,45.95
2019-05-18T07:38:20.417Z,48.30
2019-05-18T07:44:24.731Z,49.65
2019-05-18T07:50:29.058Z,50.03
2019-05-18T07:56:33.359Z,55.23
2019-05-18T08:02:37.659Z,55.12
2019-05-18T08:08:41.879Z,51.92
2019-05-18T08:14:46.189Z,49.08
2019-05-18T08:20:50.479Z,50.10
2019-05-18T08:26:54.720Z,52.23
2019-05-18T08:32:59.025Z,52.60
2019-05-18T08:39:04.130Z,54.85
2019-05-18T08:45:08.907Z,56.75
2019-05-18T08:51:13.119Z,53.95
2019-05-18T08:57:17.474Z,59.30
2019-05-18T09:03:21.715Z,59.80
2019-05-18T09:09:26.091Z,54.55
2019-05-18T09:15:30.336Z,56.02
2019-05-18T09:21:34.635Z,59.67
2019-05-18T09:27:38.883Z,63.38
2019-05-18T09:33:43.256Z,54.42
2019-05-18T09:39:47.458Z,71.00
2019-05-18T09:45:51.757Z,55.17
2019-05-18T09:51:55.998Z,55.73
2019-05-18T09:58:00.273Z,53.25
2019-05-18T10:04:04.579Z,56.05
2019-05-18T10:10:09.423Z,42.20
2019-05-18T10:16:13.651Z,54.00
2019-05-18T10:22:17.943Z,53.28
2019-05-18T10:28:22.222Z,52.50
2019-05-18T10:34:26.490Z,49.83
2019-05-18T10:40:30.684Z,55.83
2019-05-18T10:46:34.884Z,61.80
2019-05-18T10:52:39.180Z,60.28
2019-05-18T10:58:43.380Z,56.08
2019-05-18T11:04:47.754Z,67.32
2019-05-18T11:10:51.962Z,68.05
2019-05-18T11:16:56.226Z,70.12
2019-05-18T11:23:00.399Z,65.92
2019-05-18T11:29:04.885Z,60.90
2019-05-18T11:35:10.693Z,40.88
2019-05-18T11:41:14.872Z,64.30
2019-05-18T11:47:19.133Z,59.85
2019-05-18T11:53:23.347Z,57.20
2019-05-18T11:59:27.704Z,55.70
2019-05-18T12:05:32.103Z,48.63
2019-05-18T12:11:36.302Z,57.65
2019-05-18T12:17:40.612Z,57.73
2019-05-18T12:23:44.981Z,37.78
2019-05-18T12:29:49.583Z,49.85
2019-05-18T12:35:53.921Z,48.65
2019-05-18T12:41:58.179Z,53.73
2019-05-18T12:48:02.486Z,51.23
2019-05-18T12:54:06.707Z,60.20
2019-05-18T13:00:12.718Z,45.00
2019-05-18T13:06:17.899Z,32.13
2019-05-18T13:12:22.140Z,39.98
2019-05-18T13:18:26.541Z,41.80
2019-05-18T13:24:44.229Z,44.55
2019-05-18T13:30:36.781Z,45.45
2019-05-18T13:36:41.006Z,50.40
2019-05-18T13:42:45.269Z,52.15
2019-05-18T13:48:49.565Z,50.88
2019-05-18T13:55:03.510Z,49.67
2019-05-18T14:00:59.847Z,43.80
2019-05-18T14:07:04.137Z,43.00
2019-05-18T14:13:08.542Z,40.25
2019-05-18T14:19:12.733Z,44.00
2019-05-18T14:25:19.683Z,50.03
2019-05-18T14:31:23.156Z,47.67
2019-05-18T14:37:27.897Z,49.00
2019-05-18T14:43:32.473Z,45.70
2019-05-18T14:49:36.691Z,49.18
2019-05-18T14:55:41.051Z,48.60
2019-05-18T15:01:45.256Z,47.85
2019-05-18T15:07:49.623Z,54.35
2019-05-18T15:13:53.881Z,45.30
2019-05-18T15:19:58.123Z,48.30
2019-05-18T15:26:02.416Z,48.63
2019-05-18T15:32:06.695Z,45.73
2019-05-18T15:38:10.913Z,46.25
2019-05-18T15:44:15.133Z,43.42
2019-05-18T15:50:20.331Z,45.25
2019-05-18T15:56:24.581Z,48.17
2019-05-18T16:02:28.771Z,45.78
2019-05-18T16:08:33.306Z,46.20
2019-05-18T16:14:37.497Z,49.48
2019-05-18T16:20:41.764Z,47.20
2019-05-18T16:26:46.026Z,48.28
2019-05-18T16:32:50.337Z,48.95
2019-05-18T16:38:54.590Z,47.73
2019-05-18T16:44:58.924Z,51.77
2019-05-18T16:51:03.169Z,43.58
2019-05-18T16:57:07.487Z,44.13
2019-05-18T17:03:11.741Z,43.98
2019-05-18T17:09:16.028Z,39.98
2019-05-18T17:15:20.481Z,41.10
2019-05-18T17:21:24.713Z,43.33
2019-05-18T17:27:28.922Z,43.70
2019-05-18T17:33:33.326Z,44.08
2019-05-18T17:39:37.624Z,41.40
2019-05-18T17:45:41.841Z,41.23
2019-05-18T17:51:46.099Z,44.90
2019-05-18T17:57:50.586Z,42.20
2019-05-18T18:03:54.936Z,41.50
2019-05-18T18:09:59.145Z,41.95
2019-05-18T18:16:03.594Z,40.45
2019-05-18T18:22:07.851Z,41.63
2019-05-18T18:28:12.118Z,41.30
2019-05-18T18:34:16.361Z,40.90
2019-05-18T18:40:20.711Z,39.25
2019-05-18T18:46:24.954Z,40.85
2019-05-18T18:52:29.372Z,39.23
2019-05-18T18:58:33.622Z,43.33
2019-05-18T19:04:37.894Z,42.88
2019-05-18T19:10:42.196Z,37.33
2019-05-18T19:16:46.482Z,40.10
2019-05-18T19:22:50.711Z,41.92
2019-05-18T19:28:54.949Z,43.63
2019-05-18T19:34:59.179Z,47.20
2019-05-18T19:41:03.569Z,49.88
2019-05-18T19:47:07.843Z,52.70
2019-05-18T19:53:12.079Z,53.85
2019-05-18T19:59:16.404Z,59.55
2019-05-18T20:05:20.631Z,58.52
2019-05-18T20:11:25.178Z,59.98
2019-05-18T20:17:29.468Z,57.67
2019-05-18T20:23:34.009Z,58.50
2019-05-18T20:29:38.363Z,58.92
2019-05-18T20:35:42.585Z,61.73
2019-05-18T20:41:46.955Z,63.68
2019-05-18T20:47:51.478Z,58.65
2019-05-18T20:53:55.800Z,61.02
2019-05-18T21:00:00.024Z,60.92
2019-05-18T21:06:04.320Z,60.70
2019-05-18T21:12:08.653Z,63.70
2019-05-18T21:18:13.052Z,57.38
2019-05-18T21:24:17.355Z,59.73
2019-05-18T21:30:21.703Z,61.18
2019-05-18T21:36:26.223Z,60.80
2019-05-18T21:42:30.540Z,61.95
2019-05-18T21:48:34.827Z,59.95
2019-05-18T21:54:39.064Z,64.42
2019-05-18T22:00:44.480Z,58.85
2019-05-18T22:06:48.812Z,60.05
2019-05-18T22:12:53.146Z,58.38
2019-05-18T22:18:57.399Z,60.38
2019-05-18T22:25:01.688Z,61.88
2019-05-18T22:31:06.126Z,62.78
2019-05-18T22:37:10.465Z,59.63
2019-05-18T22:43:14.669Z,63.23
2019-05-18T22:49:18.959Z,64.90
2019-05-18T22:55:23.198Z,65.20
2019-05-18T23:01:27.422Z,67.78
2019-05-18T23:07:31.980Z,64.80
2019-05-18T23:13:36.275Z,66.40
2019-05-18T23:19:40.528Z,69.45
2019-05-18T23:25:44.756Z,67.87
2019-05-18T23:31:49.048Z,66.57
2019-05-18T23:37:53.447Z,69.82
2019-05-18T23:43:57.647Z,66.28
2019-05-18T23:50:02.021Z,70.83
2019-05-18T23:56:06.272Z,75.60
